Tiempo atmosférico en la estación meteorológica de San Fernando, Cádiz (28 m.)



Fecha
DESCASC
Temp. máxima en grados centígrados (hora)
DESCASC
Temp. mínima en grados centígrados (hora)
DESCASC
Temp. media en grados centígrados
DESCASC
Racha de viento máxima en m/sg (hora)
DESCASC
Velocidad máxima media en intervalos de 10 minutos(hora)
DESCASC
Precipitaciones diarias en mm
DESCASC
Precipitaciones de 00:00 a 06:00 en mm
DESCASC
Precipitaciones de 06:00 a 12:00 en mm
DESCASC
Precipitaciones de 12:00 a 18:00 en mm
DESCASC
Precipitaciones de 18:00 a 24:00 en mm
DESCASC
21-02-2021 16 (04:10) 10.9 (12:40) 13.4 15 (08:00) 7.78 (08:10) 14.6 0 14.4 0.2 0
20-02-2021 20.7 (13:50) 11.1 (05:30) 15.9 10.83 (23:59) 5.56 (23:30) 0 0 0 0 0
19-02-2021 18.4 (14:50) 8.7 (06:30) 13.5 6.94 (16:40) 4.17 (16:50) 0 0 0 0 0
18-02-2021 17.9 (16:10) 10.2 (00:00) 14 5 (17:30) 2.5 (17:30) 0 0 0 0 0
17-02-2021 18 (12:50) 10.2 (00:00) 14.1 5 (08:00) 3.61 (14:20) 0 0 0 0 0
16-02-2021 21.1 (16:20) 12.4 (00:00) 16.8 15 (01:40) 7.5 (01:10) 0 0 0 0 0
15-02-2021 18.5 (14:50) 13.6 (00:00) 16.1 19.72 (21:00) 9.72 (21:10) 0 0 0 0 0
14-02-2021 21.5 (15:10) 9.6 (00:00) 15.6 16.11 (23:59) 7.5 (21:10) 0 0 0 0 0
13-02-2021 19.8 (17:00) 10.7 (00:00) 15.2 7.5 (16:10) 3.61 (13:50) 0 0 0 0 0
12-02-2021 16.9 (17:40) 14.5 (00:00) 15.7 8.61 (13:40) 5.28 (12:40) 0.7 0 0.7 0 0
11-02-2021 17.7 (14:10) 14.1 (00:00) 15.9 5.28 (03:10) 3.61 (13:40) 0 0 0 0 0
10-02-2021 17.4 (15:20) 14 (00:00) 15.7 12.22 (00:40) 8.33 (14:00) 6.5 5.8 0 0.7 0
09-02-2021 17.7 (13:40) 13.7 (00:00) 15.7 14.72 (20:10) 8.33 (22:10) 0.5 0 0.3 0.2 0
08-02-2021 16.8 (16:20) 13.6 (00:00) 15.2 16.67 (07:00) 8.89 (06:00) 14.9 2 12.9 0 0
07-02-2021 14.1 (17:00) 11.1 (00:00) 12.6 13.33 (19:50) 8.06 (20:40) 3.9 3.2 0 0 0.7
06-02-2021 15.6 (15:30) 11.4 (00:00) 13.5 12.22 (17:10) 7.5 (17:10) 0.9 0 0 0 0.9
05-02-2021 16.6 (13:20) 12.7 (00:00) 14.7 12.78 (16:20) 6.39 (18:10) 8.3 0 1.2 6.6 0.5
04-02-2021 18.7 (15:30) 13.1 (00:00) 15.9 9.72 (21:30) 5.28 (21:30) 0 0 0 0 0
03-02-2021 18.2 (15:30) 13.4 (00:00) 15.8 6.94 (15:00) 3.61 (16:20) 0 0 0 0 0
02-02-2021 18.6 (15:10) 13.2 (00:00) 15.9 5 (14:10) 3.33 (16:40) 0 0 0 0 0
01-02-2021 16.6 (12:10) 14.3 (00:00) 15.5 9.44 (02:40) 6.39 (02:30) 0 0 0 0 0
31-01-2021 17.2 (16:00) 14 (00:00) 15.6 10.28 (16:00) 7.22 (21:50) 0 0 0 0 0
30-01-2021 16.4 (15:50) 14.2 (00:00) 15.3 11.67 (22:30) 7.22 (22:30) 5.1 0 0.8 4.3 0
29-01-2021 15.6 (15:20) 12.5 (00:00) 14.1 5.83 (22:40) 3.33 (22:30) 0.4 0.2 0.2 0 0
28-01-2021 16 (00:30) 11.8 (00:00) 13.9 5 (00:20) 2.5 (00:40) 0.2 0 0.1 0 0.1
27-01-2021 19.8 (17:30) 14.8 (00:00) 17.3 6.39 (19:30) 3.61 (19:30) 0.1 0.1 0 0 0
26-01-2021 17.1 (14:40) 15.1 (00:00) 16.1 6.67 (12:10) 4.17 (05:20) 0.2 0 0.2 0 0
25-01-2021 17.2 (14:20) 13.2 (00:00) 15.2 11.39 (16:30) 7.22 (15:40) 0.4 0 0 0.4 0

Gráficas

Temp. máximas Temp. mínimas Temp. medias Precipitaciones Rachas de viento máximas Velocidades máximas media en intervalos de 10 minutos

Datos horarios

Fecha y hora oficial Temperatura (ºC) Velocidad del viento (km/h) Dirección del viento Racha (km/h) Dirección de racha Precipitación (mm) Presión (hPa) Tendencia (hPa) Humedad (%)
2021-02-23 23:00:00 12.6 11 Este 26 Este 0 1026.9 0.3 77
2021-02-23 22:00:00 12.8 15 Este 26 Este 0 1026.6 0.6 74
2021-02-23 21:00:00 13.3 14 Este 26 Este 0 1026.9 0.9 67
2021-02-23 20:00:00 13.8 13 Este 31 Este 0 1026.6 1.1 63
2021-02-23 19:00:00 15.6 17 Este 37 Este 0 1026 0.7 56
2021-02-23 18:00:00 17.2 18 Este 40 Este 0 1026 -- 46
2021-02-23 17:00:00 18.4 16 Este 40 Este 0 1025.5 -- 42
2021-02-23 16:00:00 19 19 Este 39 Sudeste 0 1025.3 -- 37
2021-02-23 15:00:00 19.1 19 Este 42 Este 0 1025.5 -- 34
2021-02-23 14:00:00 19.6 17 Sudeste 39 Sudeste 0 1026 -- 35
2021-02-23 13:00:00 18.8 14 Este 29 Este 0 1026.6 -- 38
2021-02-23 12:00:00 17.6 10 Este 26 Sudeste 0 1026.8 -- 47
2021-02-23 11:00:00 14.5 9 Este 15 Este 0 1026.7 -- 64
2021-02-23 10:00:00 11.7 6 Este 14 Este 0 1026.2 -- 75
2021-02-23 09:00:00 9.8 3 Nordeste 20 Este 0 1025.3 -- 80
2021-02-23 08:00:00 9.2 13 Este 23 Este 0 1024.4 -- 85
2021-02-23 07:00:00 9.1 10 Este 20 Este 0 1023.9 -- 88
2021-02-23 06:00:00 9 11 Este 19 Este 0 1023.6 -- 89
2021-02-23 05:00:00 9.5 12 Este 19 Este 0 1023.5 -- 89
2021-02-23 04:00:00 10.1 5 Este 12 Este 0 1023.5 -- 88
2021-02-23 03:00:00 10.4 8 Este 14 Este 0 1023.5 -- 87
2021-02-23 02:00:00 10.7 6 Este 13 Este 0 1023.5 -- 87
2021-02-23 01:00:00 11 8 Este 13 Sudeste 0 1023.3 -- 86
2021-02-23 00:00:00 11.4 5 Sudeste 11 Sudeste 0 1023.1 -- 85
2021-02-22 23:00:00 12.1 3 Sudeste 9 Sudeste 0 1022.7 -- 82
2021-02-22 22:00:00 13.2 3 Sur 9 Sur 0 1022.4 -- 77
2021-02-22 21:00:00 13.3 3 Sur 10 Sudoeste 0 1021.6 -- 74
2021-02-22 20:00:00 13.7 5 Sudoeste 12 Sudoeste 0 1021.2 -- 69
2021-02-22 19:00:00 14.8 8 Sudoeste 18 Sudoeste 0 1020.6 -- 63
2021-02-22 18:00:00 16 9 Sudoeste 17 Sudoeste 0 1020.1 -- 60
2021-02-22 17:00:00 15.9 9 Sudoeste 21 Sudoeste 0 1019.8 -- 59
2021-02-22 16:00:00 15.7 12 Sudoeste 25 Sudoeste 0 1019.5 -- 61
2021-02-22 15:00:00 15.9 12 Sudoeste 26 Sudoeste 0 1019.2 -- 61
2021-02-22 14:00:00 15.8 9 Sudoeste 24 Sudoeste 0 1019.3 -- 58
2021-02-22 13:00:00 15.6 10 Sudoeste 21 Sur 0 1019.7 -- 57
2021-02-22 12:00:00 14.8 8 Sudoeste 17 Sudoeste 0 1019.5 -- 58
2021-02-22 11:00:00 14.3 4 Sudeste 11 Sudeste 0 1019.2 -- 62
2021-02-22 10:00:00 11.4 5 Sudeste 13 Sudeste 0 1018.7 -- 74
2021-02-22 09:00:00 8.8 6 Este 15 Este 0 1017.8 -- 79
2021-02-22 08:00:00 8.7 5 Este 12 Sudeste 0 1017.4 -- 77
2021-02-22 07:00:00 9.6 4 Este 10 Nordeste 0 1016.4 1.1 74
2021-02-22 06:00:00 9.9 5 Este 10 Nordeste 0 1015.9 -- 74
2021-02-22 05:00:00 10.9 4 Nordeste 9 Norte 0 1015.5 -- 71
2021-02-22 04:00:00 11.7 2 Norte 19 Noroeste 0 1015.3 -- 67
2021-02-22 03:00:00 13.3 15 Noroeste 30 Noroeste 0 1015.1 -- 58
2021-02-22 02:00:00 13.3 20 Noroeste 34 Noroeste 0 1014.7 -- 55
2021-02-22 01:00:00 13.5 23 Noroeste 39 Oeste 0 1013.9 -- 55
2021-02-22 00:00:00 13.6 22 Noroeste 35 Oeste 0 1013.4 -- 56
2021-02-21 23:00:00 13.8 22 Oeste 36 Noroeste 0 1012.7 -- 63
2021-02-21 22:00:00 14 23 Noroeste 37 Noroeste 0 1011.9 3.4 59
2021-02-21 21:00:00 13.7 21 Noroeste 35 Oeste 0 1010.9 -- 61
2021-02-21 20:00:00 13.8 23 Oeste 36 Oeste 0 1009.8 -- 65
2021-02-21 19:00:00 13.8 24 Oeste 36 Oeste 0 1008.5 -- 65
2021-02-21 18:00:00 13.9 22 Oeste 40 Oeste 0 1007.4 -- 63
2021-02-21 17:00:00 14.1 24 Oeste 45 Oeste 0 1006.6 -- 60
2021-02-21 16:00:00 13.4 26 Noroeste 43 Oeste 0.1 1005.6 -- 64
2021-02-21 15:00:00 12.5 25 Oeste 39 Noroeste 0 1005 -- 72
2021-02-21 14:00:00 12.2 13 Noroeste 26 Noroeste 0 1004.5 -- 77
2021-02-21 13:00:00 11.4 15 Noroeste 27 Noroeste 0.1 1004.1 -- 88
2021-02-21 12:00:00 11.5 12 Noroeste 31 Noroeste 3 1003.6 -- 91
2021-02-21 11:00:00 11.7 14 Noroeste 25 Noroeste 3.1 1002.8 -- 91
2021-02-21 10:00:00 12.2 8 Norte 26 Noroeste 2.3 1002.5 -- 91
2021-02-21 09:00:00 12.6 22 Oeste 52 Sur 4.1 1001.6 -- 90
2021-02-21 08:00:00 13.8 26 Sur 54 Sur 1.8 1001.2 -- 82
2021-02-21 07:00:00 14.9 12 Sur 24 Sur 0.1 1001.9 -- 73
2021-02-21 06:00:00 15.3 7 Sur 27 Sur 0 1002.7 -- 69
2021-02-21 05:00:00 15.2 8 Sur 20 Sudeste 0 1003.5 -- 71
2021-02-21 04:00:00 15.8 8 Sudoeste 21 Sur 0 1004.4 -- 73
2021-02-21 03:00:00 14.7 5 Sudeste 35 Sudeste 0 1004.5 -- 74
2021-02-21 02:00:00 14.5 14 Sudeste 35 Sudeste 0 1004.5 -- 74
2021-02-21 01:00:00 14.3 13 Sudeste 36 Este 0 1004.2 -- 74
2021-02-21 00:00:00 14.3 19 Este 39 Este 0 1004 -- 75
2021-02-20 23:00:00 14 18 Este 38 Sudeste 0 1004.3 -- 76
2021-02-20 22:00:00 14.3 17 Este 36 Sudeste 0 1004.2 -- 74
2021-02-20 21:00:00 14.6 19 Sudeste 38 Sudeste 0 1004.7 -- 72
2021-02-20 20:00:00 15.1 16 Sudeste 37 Sudeste 0 1005.3 -- 70
2021-02-20 19:00:00 16.6 14 Este 34 Sudeste 0 1005.8 -- 64
2021-02-20 18:00:00 18.3 15 Sudeste 31 Sudeste 0 1006.4 -- 57
2021-02-20 17:00:00 19.8 14 Este 33 Este 0 1007 -- 53
2021-02-20 16:00:00 19.8 14 Sudeste 36 Sudeste 0 1007.4 -- 53
2021-02-20 15:00:00 20 18 Sudeste 35 Sudeste 0 1008.1 -- 52
2021-02-20 14:00:00 20.1 15 Sudeste 38 Este 0 1009.3 -- 52
2021-02-20 13:00:00 19.3 16 Sudeste 38 Sudeste 0 1010.4 -- 52
2021-02-20 12:00:00 18.1 15 Sudeste 36 Sudeste 0 1011.1 -- 58
2021-02-20 11:00:00 16.6 14 Este 32 Sudeste 0 1011.6 -- 66
2021-02-20 10:00:00 13.9 14 Sudeste 27 Sudeste 0 1012 -- 78
2021-02-20 09:00:00 12.4 10 Sudeste 27 Sudeste 0 1012 0.5 83
2021-02-20 08:00:00 12.1 12 Sudeste 28 Sudeste 0 1011.4 -- 84
2021-02-20 07:00:00 11.7 10 Sudeste 23 Sudeste 0 1011.3 -- 87
2021-02-20 06:00:00 11.3 9 Este 18 Sudeste 0 1011.5 -- 87
2021-02-20 05:00:00 11.4 6 Sudeste 15 Sudeste 0 1011.5 -- 85
2021-02-20 04:00:00 11.4 6 Sudeste 18 Sudeste 0 1012.4 -0.4 84
2021-02-20 03:00:00 11.4 6 Sudeste 26 Sudeste 0 1012.5 -- 85
2021-02-20 02:00:00 11.5 10 Sudeste 26 Sudeste 0 1012.3 -- 86
2021-02-20 01:00:00 11.5 13 Sudeste 23 Sudeste 0 1012.8 -- 86
2021-02-20 00:00:00 12.1 12 Este 22 Sudeste 0 1013.6 -- 89
2021-02-19 23:00:00 13.8 5 Este 9 Este 0 1014.6 0.2 88
2021-02-19 22:00:00 14.4 4 Sudoeste 12 Oeste 0 1014.9 -- 87
2021-02-19 21:00:00 14.4 6 Oeste 11 Oeste 0 1014.8 -- 86
2021-02-19 20:00:00 14.8 5 Sudoeste 14 Sur 0 1014.4 -- 83
2021-02-19 19:00:00 15.2 7 Sur 16 Sudoeste 0 1014.3 -- 79
2021-02-19 18:00:00 16.4 11 Sudoeste 21 Sudoeste 0 1014.7 -- 74
2021-02-19 17:00:00 16.6 12 Sudoeste 25 Sudoeste 0 1014.9 -0.9 73
2021-02-19 16:00:00 18.4 10 Sur 23 Sur 0 1014.6 -- 66
2021-02-19 15:00:00 18.1 13 Sur 24 Sur 0 1014.8 -- 68
2021-02-19 14:00:00 17.5 6 Sur 18 Sudoeste 0 1015.8 -- 71
2021-02-19 13:00:00 15.7 5 Sur 19 Sudeste 0 1016.6 -- 87
2021-02-19 12:00:00 13.8 6 Sudeste 16 Este 0 1017.1 -- 93
2021-02-19 11:00:00 13.2 3 Este 14 Este 0 1017.2 -- 94
2021-02-19 10:00:00 11.7 6 Este 13 Este 0 1017 -- 94
2021-02-19 09:00:00 9.9 7 Este 12 Este 0 1016.7 -- 94
2021-02-19 08:00:00 9.9 3 Este 9 Este 0 1016.6 -- 94
2021-02-19 07:00:00 9.1 4 Este 9 Este 0 1016.4 -- 93
2021-02-19 06:00:00 9.1 3 Este 8 Este 0 1016.1 -- 93
2021-02-19 05:00:00 9.9 4 Sudeste 11 Sudeste 0 1015.8 -- 92
2021-02-19 04:00:00 10.4 4 Sudeste 11 Sudeste 0 1015.9 -- 92
2021-02-19 03:00:00 10.6 6 Este 13 Este 0 1016.2 -- 92
2021-02-19 02:00:00 11.3 6 Este 11 Este 0 1016.4 -- 91
2021-02-19 01:00:00 11.6 3 Este 6 Este 0 1016.7 -- 90
2021-02-19 00:00:00 12.1 4 Este 6 Este 0 1017.1 -- 88
2021-02-18 23:00:00 12.6 2 Este 7 Sudeste 0 1017.1 -- 86
2021-02-18 22:00:00 13.6 0 Calma 2 Oeste 0 1016.9 -- 83
2021-02-18 21:00:00 13.8 0 Calma 5 Sudoeste 0 1016.7 -- 81
2021-02-18 20:00:00 14.2 3 Sudoeste 10 Sudoeste 0 1016.8 -- 78
2021-02-18 19:00:00 14.9 5 Sudoeste 14 Sudoeste 0 1016.3 -- 73
2021-02-18 18:00:00 16.1 9 Sudoeste 18 Sudoeste 0 1015.9 -- 67
2021-02-18 17:00:00 17.8 4 Sur 13 Sudoeste 0 1015.9 -- 63
2021-02-18 16:00:00 17.6 4 Sudoeste 15 Sur 0 1015.9 -- 63
2021-02-18 15:00:00 16.5 4 Sur 14 Sudeste 0 1016.3 -- 68
2021-02-18 14:00:00 16.2 4 Sur 17 Sudoeste 0 1017.1 -- 69
2021-02-18 13:00:00 15.7 6 Sur 14 Sudoeste 0 1017.6 -- 72
2021-02-18 12:00:00 15.2 3 Sur 13 Sudeste 0 1017.7 -- 81
2021-02-18 11:00:00 13.4 0 Calma 10 Sudeste 0 1017.9 -- 94
2021-02-18 10:00:00 11.9 4 Sudeste 10 Sudeste 0 1017.1 -- 94
2021-02-18 09:00:00 11.3 0 Calma 5 Sudeste 0 1016.6 -- 94
2021-02-18 08:00:00 10.4 0 Calma 14 Sudeste 0 1015.7 -- 94
2021-02-18 07:00:00 11 6 Este 13 Sudeste 0 1015.2 -- 94
2021-02-18 06:00:00 11.4 6 Sudeste 15 Sudeste 0 1015.3 -- 93
2021-02-18 05:00:00 11.7 5 Sudeste 13 Sudeste 0 1015.4 -- 93
2021-02-18 04:00:00 12.4 3 Este 8 Este 0 1015.5 -- 93
2021-02-18 03:00:00 13.7 0 Calma 3 Noroeste 0 1015.9 -- 93
2021-02-18 02:00:00 13.9 0 Calma 4 Noroeste 0 1016.2 -- 93
2021-02-18 01:00:00 13.9 0 Calma 5 Norte 0 1016.3 -- 93
2021-02-18 00:00:00 13.5 0 Calma 7 Noroeste 0 1016.5 -- 91
2021-02-17 23:00:00 14.8 5 Noroeste 13 Noroeste 0 1016.5 -- 89
2021-02-17 22:00:00 14.4 5 Oeste 14 Noroeste 0 1016.3 -- 86
2021-02-17 21:00:00 14.3 7 Oeste 10 Oeste 0 1016.3 -- 82
2021-02-17 20:00:00 14.7 4 Oeste 9 Oeste 0 1016.2 -- 77
2021-02-17 19:00:00 15.7 5 Oeste 12 Oeste 0 1016 -- 72
2021-02-17 18:00:00 16.7 8 Sudoeste 18 Oeste 0 1016.2 -- 70
2021-02-17 17:00:00 17 10 Oeste 18 Oeste 0 1016.6 -- 71
2021-02-17 16:00:00 17.7 10 Oeste 18 Oeste 0 1016.8 -- 67
2021-02-17 15:00:00 17 10 Oeste 18 Oeste 0 1017.3 -- 70
2021-02-17 14:00:00 17 9 Noroeste 17 Noroeste 0 1017.9 -- 69
2021-02-17 13:00:00 17.5 5 Oeste 11 Nordeste 0 1019 -- 66
2021-02-17 12:00:00 17.1 4 Este 12 Este 0 1019.5 -- 66
2021-02-17 11:00:00 15.7 4 Este 12 Este 0 1019.9 -- 76
2021-02-17 10:00:00 12.4 6 Este 13 Este 0 1019.9 -- 88
2021-02-17 09:00:00 10.7 6 Este 15 Este 0 1019.7 -- 91
2021-02-17 08:00:00 10.3 10 Sudeste 18 Sudeste 0 1019.5 -- 92
2021-02-17 07:00:00 10.3 8 Este 16 Este 0 1019.5 -- 91
2021-02-17 06:00:00 10.7 9 Este 17 Este 0 1019.6 -- 90
2021-02-17 05:00:00 11.2 7 Este 14 Nordeste 0 1020 -- 89
2021-02-17 04:00:00 11.1 5 Este 12 Nordeste 0 1020.5 -- 89
2021-02-17 03:00:00 11.4 2 Nordeste 9 Nordeste 0 1021 -- 88
2021-02-17 02:00:00 11.8 6 Este 15 Sudeste 0 1021.3 -- 85
2021-02-17 01:00:00 12.1 8 Este 13 Este 0 1021.4 -- 83
2021-02-17 00:00:00 12.4 8 Este 16 Sudeste 0 1021.7 -- 82
2021-02-16 23:00:00 12.9 8 Este 16 Sudeste 0 1021.6 -- 80
2021-02-16 22:00:00 13.5 6 Este 12 Este 0 1021.8 -- 76
2021-02-16 21:00:00 14.6 4 Este 12 Sudeste 0 1021.8 -- 71
2021-02-16 20:00:00 16 8 Este 17 Sudeste 0 1021.6 -- 67
2021-02-16 19:00:00 17.9 7 Este 14 Este 0 1021.3 -- 58
2021-02-16 18:00:00 19.7 8 Sudeste 19 Sudeste 0 1021.2 -- 52
2021-02-16 17:00:00 20.8 10 Este 21 Sudeste 0 1021.4 -- 50
2021-02-16 16:00:00 20.8 12 Este 27 Este 0 1021.8 -- 51
2021-02-16 15:00:00 20.6 15 Este 30 Sudeste 0 1022.1 -- 52
2021-02-16 14:00:00 20 17 Este 35 Este 0 1022.9 -- 54
2021-02-16 13:00:00 19.2 17 Este 35 Sudeste 0 1023.8 -- 58
2021-02-16 12:00:00 18.3 19 Este 41 Sudeste 0 1024.2 -- 59
2021-02-16 11:00:00 16.7 18 Este 37 Sudeste 0 1024.4 -- 65
2021-02-16 10:00:00 15 13 Este 33 Sudeste 0 1024.3 -- 72
2021-02-16 09:00:00 13 16 Sudeste 37 Sudeste 0 1023.2 -- 76
2021-02-16 08:00:00 12.7 17 Sudeste 37 Sudeste 0 1022.5 -- 76
2021-02-16 07:00:00 12.9 19 Este 43 Sudeste 0 1021.9 -- 76
2021-02-16 06:00:00 13 17 Este 40 Sudeste 0 1022.4 -- 75
2021-02-16 05:00:00 13.1 18 Este 46 Sudeste 0 1022.6 -- 75
2021-02-16 04:00:00 13.2 19 Este 38 Sudeste 0 1023.1 -- 74
2021-02-16 03:00:00 13.3 20 Este 48 Este 0 1023.5 -- 74
2021-02-16 02:00:00 13.4 23 Este 54 Sudeste 0 1023.5 -- 73
2021-02-16 01:00:00 13.5 27 Este 47 Este 0 1023.6 -- 72
2021-02-16 00:00:00 13.7 21 Sudeste 52 Sudeste 0 1024 -- 71
2021-02-15 23:00:00 13.8 24 Sudeste 55 Sudeste 0 1023.8 -- 70
2021-02-15 22:00:00 14 25 Este 60 Este 0 1023.2 -- 70
2021-02-15 21:00:00 14.3 33 Este 71 Sudeste 0 1022.2 -- 66
2021-02-15 20:00:00 14.4 28 Este 58 Sudeste 0 1022.1 -- 64
2021-02-15 19:00:00 15.1 30 Este 59 Sudeste 0 1022.1 -- 63
2021-02-15 18:00:00 16.3 23 Este 55 Este 0 1022.3 -- 60
2021-02-15 17:00:00 17.1 23 Este 60 Sudeste 0 1022.8 -- 58
2021-02-15 16:00:00 18.1 26 Este 64 Sudeste 0 1022.9 -- 58
2021-02-15 15:00:00 18.3 26 Este 61 Este 0 1023.4 -- 58
2021-02-15 14:00:00 18.1 32 Este 63 Sudeste 0 1023.7 -- 58
2021-02-15 13:00:00 17.8 33 Este 64 Sudeste 0 1024.2 -- 58
2021-02-15 12:00:00 17.6 31 Este 62 Sudeste 0 1024.7 -- 60
2021-02-15 11:00:00 16.8 28 Este 64 Este 0 1024.4 -- 63
2021-02-15 10:00:00 15.6 26 Este 55 Este 0 1024 -- 67
2021-02-15 09:00:00 14.2 25 Este 57 Este 0 1023.3 -- 71
2021-02-15 08:00:00 14.1 23 Este 57 Sudeste 0 1022.8 -- 72
2021-02-15 07:00:00 14.1 24 Este 55 Sudeste 0 1022.7 -- 71
2021-02-15 06:00:00 14.3 25 Este 57 Sudeste 0 1022.5 -- 71
2021-02-15 05:00:00 14.1 26 Este 53 Sudeste 0 1022.3 -- 71
2021-02-15 04:00:00 14.3 27 Este 56 Este 0 1022.6 -- 70
2021-02-15 03:00:00 14.4 30 Este 56 Sudeste 0 1022.5 -- 70
2021-02-15 02:00:00 14.5 26 Este 64 Este 0 1022.9 -- 68
2021-02-15 01:00:00 14.4 28 Este 52 Sudeste 0 1022.9 -- 68
2021-02-15 00:00:00 14.4 27 Este 58 Este 0 1023 -- 68
2021-02-14 23:00:00 14.5 24 Este 51 Sudeste 0 1023.3 -- 71
2021-02-14 22:00:00 14.7 25 Este 51 Sudeste 0 1022.8 -- 68
2021-02-14 21:00:00 14.9 26 Este 49 Este 0 1022.2 -- 59
2021-02-14 20:00:00 15.5 21 Este 43 Este 0 1022.5 -- 50
2021-02-14 19:00:00 16.9 21 Este 44 Sudeste 0 1022.3 0.8 46
2021-02-14 18:00:00 18 20 Este 45 Sudeste 0 1022.1 0.6 43
2021-02-14 17:00:00 19.5 26 Este 53 Sudeste 0 1022.2 -- 39
2021-02-14 16:00:00 20.8 25 Este 46 Este 0 1021.5 -- 36
2021-02-14 15:00:00 21.2 26 Este 50 Sudeste 0 1021.5 -- 34
2021-02-14 14:00:00 20.9 17 Este 37 Este 0 1022 -- 40
2021-02-14 13:00:00 20.1 21 Este 37 Sudeste 0 1022.6 -- 40
2021-02-14 12:00:00 19.6 19 Este 37 Este 0 1022.9 -- 43
2021-02-14 11:00:00 17.3 10 Este 22 Este 0 1022.5 -- 55
2021-02-14 10:00:00 13.7 5 Este 12 Este 0 1022 -- 60
2021-02-14 09:00:00 11.4 8 Este 19 Este 0 1021.4 -- 57
2021-02-14 08:00:00 10.3 8 Este 17 Este 0 1020.7 -- 60
2021-02-14 07:00:00 10 10 Este 15 Este 0 1020.2 -- 65
2021-02-14 06:00:00 10.8 5 Nordeste 13 Este 0 1020.4 -- 62
2021-02-14 05:00:00 10 4 Este 8 Este 0 1020.6 -- 63
2021-02-14 04:00:00 11.4 6 Este 21 Nordeste 0 1020.8 -- 58
2021-02-14 03:00:00 12 14 Este 22 Este 0 1021.2 -- 56
2021-02-14 02:00:00 12.9 8 Nordeste 18 Este 0 1021.2 -- 54
2021-02-14 01:00:00 13.6 6 Nordeste 17 Nordeste 0 1021.6 -- 61
2021-02-14 00:00:00 13.7 7 Nordeste 17 Norte 0 1022 -- 71
2021-02-13 23:00:00 13.5 6 Nordeste 15 Norte 0 1021.9 -- 72
2021-02-13 22:00:00 14.1 4 Nordeste 13 Nordeste 0 1021.7 -- 68
2021-02-13 21:00:00 15.3 6 Nordeste 13 Nordeste 0 1021.5 -- 64
2021-02-13 20:00:00 16.1 3 Norte 12 Norte 0 1021.2 -- 62
2021-02-13 19:00:00 18 4 Nordeste 17 Nordeste 0 1020.8 -- 49
2021-02-13 18:00:00 19.4 8 Nordeste 24 Norte 0 1020.9 -- 45
2021-02-13 17:00:00 19.7 8 Nordeste 27 Nordeste 0 1021.2 -- 45
2021-02-13 16:00:00 19.1 11 Nordeste 27 Norte 0 1021.3 -- 45
2021-02-13 15:00:00 18.5 7 Nordeste 25 Nordeste 0 1021.6 -- 48
2021-02-13 14:00:00 18 11 Nordeste 27 Nordeste 0 1022 -- 52
2021-02-13 13:00:00 17 9 Nordeste 25 Nordeste 0 1022.6 -- 58
2021-02-13 08:00:00 10.9 6 Nordeste 15 Norte 0 1022.1 0.6 83
2021-02-13 07:00:00 11.3 7 Nordeste 20 Norte 0 1021.9 0.2 82
2021-02-13 06:00:00 11.7 8 Nordeste 16 Nordeste 0 1021.5 -0.3 84
2021-02-13 05:00:00 12 6 Nordeste 15 Norte 0 1021.5 -0.5 85
2021-02-13 04:00:00 12.1 3 Nordeste 11 Nordeste 0 1021.7 -0.3 90
2021-02-13 03:00:00 12.2 5 Nordeste 12 Nordeste 0 1021.8 -0.2 87
2021-02-13 02:00:00 13.1 4 Nordeste 13 Norte 0 1022 0 85
2021-02-13 01:00:00 14.3 6 Norte 18 Noroeste 0 1022 0 84
2021-02-13 00:00:00 14.8 9 Noroeste 23 Noroeste 0 1022 0.4 83
2021-02-12 23:00:00 14.9 12 Noroeste 20 Noroeste 0 1022 0.9 81
2021-02-12 22:00:00 15.3 10 Noroeste 18 Noroeste 0 1022 1.3 73
2021-02-12 21:00:00 15.6 11 Noroeste 18 Noroeste 0 1021.6 1.1 69
2021-02-12 20:00:00 15.2 10 Noroeste 17 Noroeste 0 1021.1 0.7 77
2021-02-12 19:00:00 15.5 10 Noroeste 23 Noroeste 0 1020.7 0.1 73
2021-02-12 18:00:00 16.6 12 Noroeste 22 Noroeste 0 1020.5 -0.5 65
2021-02-12 17:00:00 16.4 13 Noroeste 22 Noroeste 0 1020.4 -1 70
2021-02-12 16:00:00 16.2 13 Oeste 23 Noroeste 0 1020.6 -1.3 76
2021-02-12 15:00:00 16.3 15 Noroeste 26 Noroeste 0 1021 -0.7 74
2021-02-12 14:00:00 15.8 16 Noroeste 31 Noroeste 0 1021.4 0.3 77
2021-02-12 13:00:00 15.8 18 Noroeste 28 Noroeste 0 1021.9 1.2 78
2021-02-12 12:00:00 16 17 Noroeste 26 Noroeste 0 1021.7 1.6 80
2021-02-12 11:00:00 15.7 8 Noroeste 14 Noroeste 0 1021.1 1.7 87
2021-02-12 10:00:00 14.9 4 Noroeste 24 Oeste 0.5 1020.7 1.4 93
2021-02-12 09:00:00 15.5 12 Oeste 18 Oeste 0.1 1020.1 -- 93
2021-02-12 08:00:00 15.3 5 Oeste 12 Oeste 0.1 1019.4 -- 93
2021-02-12 07:00:00 15 6 Oeste 21 Oeste 0 1019.3 -- 93
2021-02-12 06:00:00 15.3 11 Oeste 18 Oeste 0 1019.1 -- 93
2021-02-12 05:00:00 15.3 11 Oeste 19 Oeste 0 1019 -- 93
2021-02-12 04:00:00 15.6 13 Oeste 21 Oeste 0 1019 -- 93
2021-02-12 03:00:00 15.5 13 Oeste 25 Oeste 0 1019.1 -- 93
2021-02-12 02:00:00 15.5 5 Oeste 12 Oeste 0 1019 -- 93
2021-02-12 01:00:00 15.2 5 Sudoeste 11 Sudoeste 0 1018.7 -- 93
2021-02-12 00:00:00 15.2 6 Sudoeste 11 Sudoeste 0 1018.4 -- 93
2021-02-11 23:00:00 15.2 5 Sudoeste 10 Sudoeste 0 1018.3 -- 92
2021-02-11 22:00:00 15.3 6 Oeste 10 Oeste 0 1018.3 -- 92
2021-02-11 21:00:00 15.5 6 Oeste 10 Oeste 0 1018 -- 91
2021-02-11 20:00:00 15.6 7 Oeste 15 Oeste 0 1018 -- 91
2021-02-11 19:00:00 16.1 10 Oeste 17 Oeste 0 1017.9 -- 88
2021-02-11 18:00:00 17 9 Oeste 18 Oeste 0 1017.5 -- 85
2021-02-11 17:00:00 17.4 11 Oeste 17 Oeste 0 1017.3 -- 82
2021-02-11 16:00:00 17.6 10 Oeste 16 Oeste 0 1017.1 -- 81
2021-02-11 15:00:00 17.1 10 Oeste 17 Noroeste 0 1017.4 -- 81
2021-02-11 14:00:00 17.5 10 Oeste 19 Oeste 0 1017.9 -- 80
2021-02-11 13:00:00 17.5 9 Sudoeste 15 Sudoeste 0 1018.5 -- 85
2021-02-11 12:00:00 16.3 4 Sudoeste 10 Sur 0 1018.5 -- 92
2021-02-11 11:00:00 16.1 2 Sudeste 9 Sudeste 0 1018.6 -- 93
2021-02-11 10:00:00 15.1 5 Sudeste 10 Sudeste 0 1018.2 -- 93
2021-02-11 09:00:00 14.2 4 Este 8 Sudeste 0 1017.9 -- 93
2021-02-11 08:00:00 14.3 3 Este 6 Este 0 1017.6 -- 93
2021-02-11 07:00:00 14.8 0 Calma 4 Noroeste 0 1017.4 -- 93
2021-02-11 06:00:00 15 0 Calma 5 Noroeste 0 1017.5 -- 93
2021-02-11 05:00:00 15.3 0 Calma 10 Oeste 0 1017.6 -- 93
2021-02-11 04:00:00 15.6 8 Oeste 19 Sudoeste 0 1017.8 -- 93
2021-02-11 03:00:00 15.6 10 Sudoeste 18 Sudoeste 0 1018 -- 93
2021-02-11 02:00:00 15.6 9 Sudoeste 18 Sudoeste 0 1018.2 -- 93
2021-02-11 01:00:00 15.5 7 Sur 14 Sudoeste 0 1018.2 -- 93
2021-02-11 00:00:00 15.4 7 Sudoeste 16 Oeste 0 1017.9 -- 93
2021-02-10 23:00:00 15.4 12 Oeste 19 Oeste 0 1017.3 -- 93
2021-02-10 22:00:00 15.7 12 Oeste 20 Oeste 0 1016.9 -- 92
2021-02-10 21:00:00 15.9 11 Sudoeste 22 Sudoeste 0 1017 -- 92
2021-02-10 20:00:00 15.9 13 Sudoeste 23 Sudoeste 0 1016.8 -- 92
2021-02-10 19:00:00 16 12 Sudoeste 22 Sudoeste 0 1016.3 -- 92
2021-02-10 18:00:00 16.2 17 Oeste 32 Oeste 0.4 1015.7 -- 92
2021-02-10 17:00:00 16.5 14 Oeste 27 Sudoeste 0.3 1015.5 -- 88
2021-02-10 16:00:00 16.9 16 Sudoeste 33 Oeste 0 1015.2 -- 84
2021-02-10 15:00:00 17 14 Oeste 37 Sudoeste 0 1015.2 -- 85
2021-02-10 14:00:00 17.2 30 Oeste 41 Sudoeste 0 1015.3 -- 82
2021-02-10 13:00:00 16.8 28 Oeste 41 Oeste 0 1015.3 -- 85
2021-02-10 12:00:00 16.6 19 Oeste 40 Oeste 0 1014.9 -- 85
2021-02-10 11:00:00 16.3 19 Oeste 37 Oeste 0 1014.4 -- 88
2021-02-10 10:00:00 15.9 19 Oeste 37 Oeste 0 1013.7 -- 87
2021-02-10 09:00:00 15.7 19 Oeste 39 Oeste 0 1013.1 -- 87
2021-02-10 08:00:00 15.6 24 Oeste 41 Oeste 0 1012.4 -- 90
2021-02-10 07:00:00 15.6 23 Oeste 38 Oeste 0 1011.8 -- 91
2021-02-10 06:00:00 15.5 23 Oeste 39 Oeste 0 1011.6 -- 92
2021-02-10 05:00:00 15.1 25 Oeste 38 Oeste 0 1011.1 -- 94
2021-02-10 04:00:00 14.7 16 Oeste 33 Oeste 4.7 1011.4 -- 93
2021-02-10 03:00:00 15.2 11 Sudoeste 32 Oeste 0 1011.7 -- 89
2021-02-10 02:00:00 14.4 21 Oeste 36 Oeste 0 1011.7 -- 89
2021-02-10 01:00:00 14.5 24 Oeste 44 Oeste 1.1 1011.5 -- 93
2021-02-10 00:00:00 15.6 18 Oeste 38 Oeste 0 1011.4 -- 88
2021-02-09 23:00:00 15.7 27 Oeste 42 Oeste 0 1011.4 -- 87
2021-02-09 22:00:00 15.7 24 Oeste 49 Sudoeste 0 1010.5 -- 87
2021-02-09 21:00:00 15.6 18 Sudoeste 53 Oeste 0 1010.1 -- 87
2021-02-09 20:00:00 15.9 24 Oeste 41 Oeste 0 1009.7 -- 83
2021-02-09 19:00:00 15.7 18 Oeste 37 Oeste 0 1009.2 -- 86
2021-02-09 18:00:00 15.4 19 Sudoeste 49 Sudoeste 0.2 1008.8 -- 83
2021-02-09 17:00:00 16 18 Sudoeste 41 Sudoeste 0 1008.8 -- 84
2021-02-09 16:00:00 15.9 22 Sudoeste 50 Oeste 0 1008.6 -- 84
2021-02-09 15:00:00 16.5 22 Sudoeste 42 Sudoeste 0 1009 -- 82
2021-02-09 14:00:00 17.1 24 Sudoeste 45 Oeste 0 1009.7 -- 77
2021-02-09 13:00:00 16.6 18 Sudoeste 42 Sudoeste 0 1010.4 -- 78
2021-02-09 12:00:00 16.5 22 Sudoeste 42 Sudoeste 0 1010.8 -- 77
2021-02-09 11:00:00 15.8 19 Sudoeste 37 Sudoeste 0 1010.9 -- 79
2021-02-09 10:00:00 14.6 17 Sudoeste 42 Sudoeste 0 1010.6 -- 85
2021-02-09 09:00:00 15.2 15 Sudoeste 32 Sudoeste 0 1010.3 -- 75
2021-02-09 08:00:00 14.4 14 Sudoeste 29 Sudoeste 0 1010.3 -- 85
2021-02-09 07:00:00 14.3 12 Sudoeste 28 Oeste 0.3 1010.4 -- 85
2021-02-09 06:00:00 14.6 15 Sudoeste 29 Sudoeste 0 1010.5 -- 82
2021-02-09 05:00:00 14.6 13 Sudoeste 23 Sudoeste 0 1010.6 -- 79
2021-02-09 04:00:00 14.3 11 Sudoeste 26 Sudoeste 0 1010.8 -- 77
2021-02-09 03:00:00 14 12 Sudoeste 19 Sudoeste 0 1011.5 -- 81
2021-02-09 02:00:00 14 5 Sudoeste 18 Oeste 0 1011.7 -- 85
2021-02-09 01:00:00 14 8 Sudoeste 14 Sudoeste 0 1012 -- 87
2021-02-09 00:00:00 13.8 6 Oeste 17 Oeste 0 1012 -- 85
2021-02-08 23:00:00 13.8 12 Oeste 28 Noroeste 0 1012.1 -- 81
2021-02-08 22:00:00 14.4 13 Oeste 31 Oeste 0 1012.4 -- 77
2021-02-08 21:00:00 14.5 19 Oeste 31 Oeste 0 1012 -- 76
2021-02-08 20:00:00 14.7 15 Oeste 30 Oeste 0 1011.6 -- 75
2021-02-08 19:00:00 15 21 Oeste 36 Oeste 0 1010.7 -- 72
2021-02-08 18:00:00 16.1 23 Oeste 37 Oeste 0 1010.3 -- 65
2021-02-08 17:00:00 16.2 23 Oeste 38 Oeste 0 1009.5 -- 65
2021-02-08 16:00:00 16.6 23 Oeste 36 Oeste 0 1009.4 -- 63
2021-02-08 15:00:00 16.3 22 Oeste 36 Oeste 0 1009 -- 59
2021-02-08 14:00:00 16.3 22 Oeste 34 Oeste 0 1009.6 -- 64
2021-02-08 13:00:00 15.7 20 Oeste 33 Oeste 0 1009.7 -- 68
2021-02-08 12:00:00 15.5 17 Oeste 32 Noroeste 0 1010 -- 73
2021-02-08 11:00:00 15 17 Oeste 30 Oeste 0 1009.8 -- 76
2021-02-08 10:00:00 14.8 19 Oeste 33 Oeste 0 1009.1 -- 75
2021-02-08 09:00:00 14.4 20 Oeste 45 Oeste 0 1007.9 -- 80
2021-02-08 08:00:00 13.9 23 Oeste 37 Oeste 3 1007.2 -- 93
2021-02-08 07:00:00 14.6 26 Sudoeste 60 Sudoeste 9.9 1006.5 -- 94
2021-02-08 06:00:00 14.5 32 Sudoeste 59 Sudoeste 1.6 1006.7 -- 93
2021-02-08 05:00:00 15.1 30 Sudoeste 57 Sudoeste 0 1007.4 -- 84
2021-02-08 04:00:00 14.4 26 Sudoeste 50 Sudoeste 0.4 1008.1 -- 88
2021-02-08 03:00:00 14.8 25 Sudoeste 44 Sudoeste 0 1008.8 -- 83
2021-02-08 02:00:00 14.2 23 Sudoeste 46 Sudoeste 0 1009.7 -- 85
2021-02-08 01:00:00 14 21 Sudoeste 41 Sudoeste 0 1010.6 -- 86
2021-02-08 00:00:00 13.7 20 Sudoeste 36 Sudoeste 0 1011.2 -- 85
2021-02-07 23:00:00 13.2 16 Sudoeste 39 Oeste 0.7 1012 -- 87
2021-02-07 22:00:00 13.8 14 Sudoeste 31 Sudoeste 0 1012.3 -- 77
2021-02-07 21:00:00 12.9 17 Oeste 44 Oeste 0 1012.5 -- 81
2021-02-07 20:00:00 13.2 18 Oeste 48 Oeste 0 1012.5 -- 75
2021-02-07 19:00:00 13.6 14 Oeste 29 Noroeste 0 1012.3 -- 70
2021-02-07 18:00:00 13.7 20 Oeste 34 Oeste 0 1012.3 -- 64
2021-02-07 17:00:00 13.9 20 Oeste 33 Oeste 0 1012 -- 61
2021-02-07 16:00:00 13.8 22 Oeste 35 Oeste 0 1011.8 -- 59
2021-02-07 15:00:00 13.2 20 Oeste 40 Oeste 0 1011.9 -- 55
2021-02-07 14:00:00 12.9 21 Oeste 37 Noroeste 0 1012.1 -- 59
2021-02-07 13:00:00 12.6 22 Oeste 42 Noroeste 0 1012.1 -- 60
2021-02-07 12:00:00 12.1 23 Noroeste 39 Noroeste 0 1011.8 -- 63
2021-02-07 11:00:00 12.2 22 Noroeste 40 Noroeste 0 1011.1 -- 69
2021-02-07 10:00:00 11.5 24 Noroeste 36 Oeste 0 1010.4 -- 76
2021-02-07 09:00:00 11.6 18 Noroeste 33 Noroeste 0 1008.9 -- 79
2021-02-07 08:00:00 12 21 Noroeste 32 Noroeste 0 1008 -- 78
2021-02-07 07:00:00 12.2 16 Noroeste 34 Noroeste 0 1007.2 -- 78
2021-02-07 06:00:00 12.3 22 Noroeste 39 Noroeste 0 1006.8 -- 78
2021-02-07 05:00:00 12.3 19 Noroeste 31 Noroeste 0 1006.5 -- 80
2021-02-07 04:00:00 12.3 21 Noroeste 33 Noroeste 0 1006.4 -- 81
2021-02-07 03:00:00 11.9 19 Noroeste 31 Noroeste 0 1006.2 -- 84
2021-02-07 02:00:00 11.5 20 Noroeste 33 Oeste 2.2 1006.1 -- 88
2021-02-07 01:00:00 11.9 18 Oeste 36 Oeste 1 1006.1 -- 85
2021-02-07 00:00:00 12.1 17 Oeste 38 Oeste 0.8 1006 -- 82
2021-02-06 23:00:00 12.8 21 Oeste 41 Oeste 0.1 1005.8 -- 74
2021-02-06 22:00:00 13.2 24 Oeste 40 Oeste 0 1005.3 -- 70
2021-02-06 21:00:00 13.4 26 Oeste 42 Oeste 0 1004.9 -- 70
2021-02-06 20:00:00 13.8 23 Oeste 39 Oeste 0 1004.5 -- 69
2021-02-06 19:00:00 13.9 21 Oeste 38 Oeste 0 1003.8 -- 71
2021-02-06 18:00:00 14.2 23 Oeste 44 Oeste 0 1003.1 -- 71
2021-02-06 17:00:00 14.6 26 Oeste 41 Oeste 0 1002.9 -- 67
2021-02-06 16:00:00 15 23 Oeste 41 Oeste 0 1002.7 -- 65
2021-02-06 15:00:00 14.9 22 Oeste 42 Oeste 0 1002.7 -- 66
2021-02-06 14:00:00 15.1 25 Oeste 37 Oeste 0 1002.9 -- 65
2021-02-06 13:00:00 15.3 25 Oeste 37 Oeste 0 1003.4 -- 68
2021-02-06 12:00:00 14.8 20 Oeste 37 Oeste 0 1003.4 -- 68
2021-02-06 11:00:00 14.2 22 Oeste 36 Oeste 0 1002.9 -- 71
2021-02-06 10:00:00 13.9 17 Oeste 31 Oeste 0 1002.6 -- 73
2021-02-06 09:00:00 13.6 21 Oeste 32 Oeste 0 1002 -- 73
2021-02-06 08:00:00 13.3 17 Oeste 31 Oeste 0 1001.5 -- 74
2021-02-06 07:00:00 13.3 19 Oeste 32 Oeste 0 1001.2 -- 74
2021-02-06 06:00:00 13.6 20 Oeste 32 Oeste 0 1001.1 -- 74
2021-02-06 05:00:00 13 17 Oeste 29 Oeste 0 1001.1 -- 74
2021-02-06 04:00:00 12.8 16 Oeste 32 Oeste 0 1001.5 -- 76
2021-02-06 03:00:00 12.8 19 Oeste 32 Oeste 0 1000.9 -- 79
2021-02-06 02:00:00 13 15 Oeste 37 Oeste 0 1000.8 -- 81
2021-02-06 01:00:00 13.5 26 Oeste 39 Oeste 0 1000.1 -- 84
2021-02-06 00:00:00 13.4 13 Oeste 33 Sur 0.3 999.5 -- 88
2021-02-05 23:00:00 13.4 14 Sur 34 Sur 0.1 999 -- 85
2021-02-05 22:00:00 14.1 14 Sudoeste 37 Sudoeste 0 999.2 -- 77
2021-02-05 21:00:00 14.1 14 Sudoeste 37 Sudoeste 0 999.2 -- 80
2021-02-05 20:00:00 14 13 Sudoeste 33 Oeste 0.1 999.2 -- 81
2021-02-05 19:00:00 14.4 14 Sudoeste 44 Sur 0 999 -- 79
2021-02-05 18:00:00 14.5 21 Sur 44 Sur 0 998.9 -- 82
2021-02-05 17:00:00 13.8 21 Sur 46 Sur 0 999 -- 82
2021-02-05 16:00:00 13.7 21 Sur 45 Sudoeste 1.3 998.9 -- 90
2021-02-05 15:00:00 13.9 13 Sur 32 Sudoeste 5 999.6 -- 88
2021-02-05 14:00:00 15.4 7 Sudeste 27 Sur 0.3 999.8 -- 77
2021-02-05 13:00:00 15.9 6 Sudeste 15 Sudeste 0 1000.6 -- 76
2021-02-05 12:00:00 14.7 8 Este 14 Sudeste 0 1000.5 -- 88
2021-02-05 11:00:00 14.3 3 Nordeste 25 Noroeste 1.2 1000.7 -- 86
2021-02-05 10:00:00 14.4 6 Este 13 Sudeste 0 1001 -- 89
2021-02-05 09:00:00 13.2 9 Este 21 Este 0 1000.4 -- 89
2021-02-05 08:00:00 13.2 8 Este 15 Nordeste 0 1000.1 -- 89
2021-02-05 07:00:00 13.5 4 Sudeste 14 Sudeste 0 1000.1 -- 89
2021-02-05 06:00:00 13.4 0 Calma 9 Sur 0 999.8 -- 90
2021-02-05 05:00:00 12.8 4 Este 14 Sur 0 1000 -- 90
2021-02-05 04:00:00 13.1 6 Sudeste 11 Sudeste 0 1000.8 -- 89
2021-02-05 03:00:00 14.1 0 Calma 16 Oeste 0 1000.6 -- 87
2021-02-05 02:00:00 14.2 0 Calma 13 Oeste 0 1001.4 -- 86
2021-02-05 01:00:00 14.5 0 Calma 12 Este 0 1002 -- 84
2021-02-05 00:00:00 14.8 3 Norte 8 Nordeste 0 1002.5 -- 84
2021-02-04 23:00:00 15.2 0 Calma 17 Oeste 0 1002.7 -- 84
2021-02-04 22:00:00 15.5 8 Noroeste 35 Oeste 0 1002.6 -- 85
2021-02-04 21:00:00 15.3 0 Calma 15 Este 0 1002.1 -- 83
2021-02-04 20:00:00 15.3 6 Este 12 Este 0 1002.5 -- 80
2021-02-04 19:00:00 16.1 4 Sudoeste 9 Oeste 0 1003.7 -- 71
2021-02-04 18:00:00 17.1 4 Oeste 12 Sur 0 1003.8 -- 64
2021-02-04 17:00:00 17.3 4 Sudeste 16 Sur 0 1004.1 -- 61
2021-02-04 16:00:00 17.9 8 Sur 21 Oeste 0 1004.7 -- 60
2021-02-04 15:00:00 18.3 7 Sur 22 Sudoeste 0 1005 -- 65
2021-02-04 14:00:00 17.8 12 Sur 27 Sur 0 1005.9 -- 70
2021-02-04 13:00:00 17.7 6 Sur 24 Sur 0 1006.6 -- 70
2021-02-04 12:00:00 16.7 9 Sur 27 Sur 0 1007.6 -- 73
2021-02-04 11:00:00 16.2 6 Sur 20 Sudeste 0 1007.3 -- 76
2021-02-04 10:00:00 14.3 4 Sudeste 17 Sudeste 0 1007 -- 90
2021-02-04 09:00:00 13.3 8 Este 17 Sudeste 0 1006.9 -- 91
2021-02-04 08:00:00 13.3 5 Sudeste 12 Sudeste 0 1007 -- 89
2021-02-04 07:00:00 13.3 6 Sudeste 13 Sudeste 0 1007.4 -- 88
2021-02-04 06:00:00 13.6 7 Sudeste 15 Sudeste 0 1007.4 -- 88
2021-02-04 05:00:00 14.5 4 Este 11 Sudeste 0 1008 -- 87
2021-02-04 04:00:00 14.5 5 Este 9 Este 0 1009.1 -- 87
2021-02-04 03:00:00 14.6 5 Este 10 Este 0 1009.4 -- 87
2021-02-04 02:00:00 14.7 5 Sudeste 14 Sudeste 0 1010.2 -- 87
2021-02-04 01:00:00 14.9 3 Sudeste 7 Sudoeste 0 1010.9 -- 86
2021-02-04 00:00:00 15 5 Sudoeste 13 Sudoeste 0 1011.4 -- 85
2021-02-03 23:00:00 15.4 9 Sudoeste 15 Sudoeste 0 1011.7 -- 76
2021-02-03 22:00:00 15.6 6 Sudoeste 16 Sudoeste 0 1011.9 -- 74
2021-02-03 21:00:00 15.7 8 Sudoeste 17 Sudoeste 0 1012 -- 73
2021-02-03 20:00:00 15.8 9 Sudoeste 20 Sudoeste 0 1012.2 -- 75
2021-02-03 19:00:00 16 11 Sudoeste 21 Sudoeste 0 1012.1 -- 74
2021-02-03 18:00:00 16.3 8 Sudoeste 19 Sudoeste 0 1012.2 -- 73
2021-02-03 17:00:00 16.9 9 Sudoeste 23 Sudoeste 0 1012.3 -- 70
2021-02-03 16:00:00 17.3 10 Sudoeste 21 Sudoeste 0 1012.4 -- 66
2021-02-03 15:00:00 17.5 12 Sudoeste 25 Sudoeste 0 1012.8 -- 66
2021-02-03 14:00:00 17.7 10 Sudoeste 20 Sudoeste 0 1013.6 -- 62
2021-02-03 13:00:00 17.1 10 Sudoeste 19 Sudoeste 0 1014.4 -- 63
2021-02-03 12:00:00 17.1 7 Oeste 12 Oeste 0 1014.9 -- 62
2021-02-03 11:00:00 16.5 3 Sudeste 10 Este 0 1014.9 -- 80
2021-02-03 10:00:00 14.6 5 Sudeste 10 Sudeste 0 1014.6 -- 89
2021-02-03 09:00:00 13.5 5 Sudeste 9 Sudeste 0 1014.4 -- 89
2021-02-03 08:00:00 13.6 3 Este 7 Sudeste 0 1014.5 -- 89
2021-02-03 07:00:00 14 4 Sudeste 9 Sudeste 0 1014.3 -- 87
2021-02-03 06:00:00 13.7 2 Sur 9 Sur 0 1014.3 -- 88
2021-02-03 05:00:00 14.1 5 Sudeste 10 Este 0 1014.3 -- 87
2021-02-03 04:00:00 14.7 3 Este 7 Noroeste 0 1014.8 -- 79
2021-02-03 03:00:00 14.8 6 Oeste 12 Noroeste 0 1015.3 -- 79
2021-02-03 02:00:00 14.7 8 Oeste 15 Oeste 0 1015.6 -- 89
2021-02-03 01:00:00 15 10 Oeste 16 Oeste 0 1015.8 -- 88
2021-02-03 00:00:00 14.4 7 Oeste 15 Noroeste 0 1015.8 -- 86
2021-02-02 23:00:00 15 8 Noroeste 17 Noroeste 0 1016.1 -- 87
2021-02-02 22:00:00 15.2 9 Noroeste 16 Noroeste 0 1015.8 -- 85
2021-02-02 21:00:00 15.1 6 Oeste 11 Oeste 0 1015.4 -- 85
2021-02-02 20:00:00 15.7 8 Oeste 15 Oeste 0 1015.6 -- 84
2021-02-02 19:00:00 15.9 8 Noroeste 15 Noroeste 0 1015.3 -- 79
2021-02-02 18:00:00 16.6 11 Oeste 18 Oeste 0 1015.3 -- 76
2021-02-02 17:00:00 17 11 Oeste 17 Oeste 0 1015.1 -- 71
2021-02-02 16:00:00 17.5 11 Oeste 17 Oeste 0 1015.3 -- 65
2021-02-02 15:00:00 18.2 6 Oeste 18 Noroeste 0 1015.6 -- 60
2021-02-02 14:00:00 17.8 8 Oeste 16 Noroeste 0 1016.5 -- 61
2021-02-02 13:00:00 17.4 6 Oeste 14 Oeste 0 1017.6 -- 66
2021-02-02 12:00:00 15.5 2 Noroeste 8 Oeste 0 1018.5 -- 86
2021-02-02 11:00:00 14.9 5 Noroeste 9 Noroeste 0 1018.5 -- 93
2021-02-02 10:00:00 14.6 0 Calma 6 Oeste 0 1017.9 -- 93
2021-02-02 09:00:00 14.1 2 Oeste 11 Noroeste 0 1017.6 -- 93
2021-02-02 08:00:00 13.8 6 Este 10 Este 0 1017.7 -- 93
2021-02-02 07:00:00 13.7 3 Este 6 Este 0 1017.6 -- 92
2021-02-02 06:00:00 13.3 3 Este 6 Sudeste 0 1017.9 -- 92
2021-02-02 05:00:00 13.6 0 Calma -- -- 0 1018.2 -- 92
2021-02-02 04:00:00 14.3 0 Calma 2 Oeste 0 1018.2 -- 92
2021-02-02 03:00:00 13.5 0 Calma 3 Oeste 0 1018.4 -- 91
2021-02-02 02:00:00 14.3 0 Calma 2 Oeste 0 1018.7 -- 91
2021-02-02 01:00:00 14.2 0 Calma 3 Oeste 0 1018.9 -- 90
2021-02-02 00:00:00 14.3 0 Calma 3 Oeste 0 1018.8 -- 89
2021-02-01 23:00:00 14.6 3 Oeste 5 Oeste 0 1018.9 -- 89
2021-02-01 22:00:00 14.9 3 Oeste 8 Oeste 0 1019.1 -- 88
2021-02-01 21:00:00 14.9 6 Oeste 13 Oeste 0 1019.4 -- 86
2021-02-01 20:00:00 15.2 9 Oeste 13 Oeste 0 1019.3 -- 82
2021-02-01 19:00:00 15.5 8 Oeste 16 Oeste 0 1019.1 -- 76
2021-02-01 18:00:00 16 8 Oeste 14 Oeste 0 1018.7 -- 74
2021-02-01 17:00:00 15.9 6 Oeste 13 Noroeste 0 1018.8 -- 72
2021-02-01 16:00:00 16 9 Noroeste 15 Noroeste 0 1019 -- 70
2021-02-01 15:00:00 16.1 5 Oeste 19 Noroeste 0 1019.1 -- 73
2021-02-01 14:00:00 15.7 12 Noroeste 30 Oeste 0 1019.6 -- 79
2021-02-01 13:00:00 16.3 19 Oeste 32 Oeste 0 1019.9 -- 73
2021-02-01 12:00:00 16.4 21 Oeste 31 Oeste 0 1020.2 -- 76
2021-02-01 11:00:00 16.2 19 Oeste 30 Oeste 0 1019.8 -- 83
2021-02-01 10:00:00 15.3 13 Oeste 21 Oeste 0 1019.4 -- 91
2021-02-01 09:00:00 15.6 11 Oeste 21 Oeste 0 1018.7 -- 92
2021-02-01 08:00:00 15.3 15 Oeste 30 Oeste 0 1018.2 -- 92
2021-02-01 07:00:00 15.5 14 Oeste 30 Oeste 0 1017.9 -- 92
2021-02-01 06:00:00 15.3 15 Oeste 30 Oeste 0 1017.5 -- 93
2021-02-01 05:00:00 15.6 19 Oeste 26 Oeste 0 1017.7 -- 93
2021-02-01 04:00:00 15.7 17 Oeste 32 Oeste 0 1018 -- 93
2021-02-01 03:00:00 15.7 22 Oeste 34 Oeste 0 1018.5 -- 91
2021-02-01 02:00:00 15.8 20 Oeste 33 Sudoeste 0 1018.9 -- 91
2021-02-01 01:00:00 15.7 18 Oeste 29 Oeste 0 1018.9 -- 91
2021-02-01 00:00:00 15.6 16 Oeste 27 Oeste 0 1019 -- 92
2021-01-31 23:00:00 15.5 19 Oeste 35 Oeste 0 1019.4 -- 91
2021-01-31 22:00:00 15.4 23 Oeste 37 Oeste 0 1018.9 -- 89
2021-01-31 21:00:00 15.7 20 Oeste 33 Oeste 0 1018.8 -- 83
2021-01-31 20:00:00 15.5 22 Oeste 34 Sudoeste 0 1018.9 -- 82
2021-01-31 19:00:00 15.5 21 Oeste 34 Oeste 0 1019 -- 82
2021-01-31 18:00:00 16.1 19 Oeste 34 Oeste 0 1018.8 -- 78
2021-01-31 17:00:00 16.3 20 Oeste 36 Oeste 0 1019.1 -- 76
2021-01-31 16:00:00 16.8 23 Oeste 37 Oeste 0 1018.9 -- 74
2021-01-31 15:00:00 16.5 18 Oeste 31 Oeste 0 1019.6 -- 79
2021-01-31 14:00:00 16.5 19 Oeste 31 Oeste 0 1020.2 -- 76
2021-01-31 13:00:00 16.2 17 Oeste 27 Oeste 0 1020.7 -- 79
2021-01-31 12:00:00 16 15 Oeste 24 Oeste 0 1021.5 -- 79
2021-01-31 11:00:00 15.2 13 Oeste 27 Noroeste 0 1021.1 -- 81
2021-01-31 10:00:00 14.5 14 Oeste 20 Oeste 0 1020.7 -- 83
2021-01-31 09:00:00 14.1 11 Noroeste 27 Noroeste 0 1020.2 -- 82
2021-01-31 08:00:00 14.1 16 Noroeste 28 Oeste 0 1020 -- 79
2021-01-31 07:00:00 14.2 18 Noroeste 31 Oeste 0 1019.3 -- 74
2021-01-31 06:00:00 14.4 14 Oeste 26 Noroeste 0 1019 -- 73
2021-01-31 05:00:00 14.1 16 Oeste 28 Noroeste 0 1019.1 -- 70
2021-01-31 04:00:00 14.3 18 Noroeste 35 Noroeste 0 1019.6 -- 70
2021-01-31 03:00:00 14.3 15 Noroeste 30 Noroeste 0 1019.7 -- 72
2021-01-31 02:00:00 14.4 20 Noroeste 31 Noroeste 0 1019.7 -- 69
2021-01-31 01:00:00 14.4 14 Oeste 30 Oeste 0 1019.7 -- 72
2021-01-31 00:00:00 14.5 14 Noroeste 34 Noroeste 0 1019.5 -- 65
2021-01-30 23:00:00 14.8 23 Noroeste 42 Noroeste 0 1019.6 -- 62
2021-01-30 22:00:00 14.9 18 Noroeste 33 Noroeste 0 1019.1 -- 69
2021-01-30 21:00:00 15.2 22 Noroeste 34 Noroeste 0 1018.7 -- 79
2021-01-30 20:00:00 15.5 22 Oeste 41 Oeste 0 1018.1 -- 78
2021-01-30 19:00:00 15.3 22 Oeste 34 Oeste 0 1017.3 -- 82
2021-01-30 18:00:00 15.8 19 Oeste 31 Oeste 0.1 1017.3 -- 80
2021-01-30 17:00:00 16.4 15 Oeste 24 Oeste 0 1017.3 -- 77
2021-01-30 16:00:00 16.3 15 Oeste 26 Noroeste 0 1017.3 -- 74
2021-01-30 15:00:00 15.9 19 Noroeste 31 Oeste 0 1017.7 -- 80
2021-01-30 14:00:00 16.2 21 Oeste 35 Oeste 3.9 1018 -- 93
2021-01-30 13:00:00 15.6 23 Oeste 36 Oeste 0.3 1018.9 -- 93
2021-01-30 12:00:00 15.6 23 Oeste 36 Oeste 0.3 1018.9 -- 92
2021-01-30 11:00:00 15.4 16 Oeste 36 Oeste 0 1018.6 -- 92
2021-01-30 10:00:00 15 15 Oeste 24 Oeste 0 1018.9 -- 93
2021-01-30 09:00:00 14.4 8 Sudoeste 24 Oeste 0 1018.1 -- 93
2021-01-30 08:00:00 14.6 19 Oeste 33 Sudoeste 0.3 1019 -- 92
2021-01-30 07:00:00 14.3 13 Oeste 22 Sudoeste 0.2 1019.1 -- 91
2021-01-30 06:00:00 14.3 6 Oeste 33 Oeste 0 1018.8 -- 87
2021-01-30 05:00:00 14.8 12 Oeste 22 Oeste 0 1019.4 -- 79
2021-01-30 04:00:00 14.6 10 Sudoeste 18 Oeste 0 1018.9 -- 81
2021-01-30 03:00:00 14.5 6 Sudoeste 18 Sudoeste 0 1019.5 -- 82
2021-01-30 02:00:00 14.5 10 Sudoeste 24 Oeste 0 1020 -- 82
2021-01-30 01:00:00 14.6 10 Oeste 22 Oeste 0 1020.8 -- 81
2021-01-30 00:00:00 14.8 8 Oeste 17 Oeste 0 1020.7 -- 81
2021-01-29 23:00:00 14.8 9 Oeste 21 Oeste 0 1020.7 -- 82
2021-01-29 22:00:00 14.9 8 Oeste 14 Sudoeste 0 1020.7 -- 82
2021-01-29 21:00:00 15 6 Sudoeste 12 Sudoeste 0 1020.1 -- 82
2021-01-29 20:00:00 14.9 5 Oeste 15 Oeste 0 1020.6 -- 82
2021-01-29 19:00:00 15.1 8 Oeste 17 Oeste 0 1020.2 -- 82
2021-01-29 18:00:00 15.3 6 Sudoeste 13 Sudoeste 0 1020 -- 83
2021-01-29 17:00:00 15.4 6 Oeste 13 Oeste 0 1020 -- 84
2021-01-29 16:00:00 15.3 5 Sudoeste 12 Sudoeste 0 1019.8 -- 90
2021-01-29 15:00:00 15.5 5 Sur 11 Sur 0 1020.2 -- 93
2021-01-29 14:00:00 14.9 3 Sudoeste 9 Sudoeste 0 1020.9 -- 93
2021-01-29 13:00:00 14.7 5 Sudoeste 8 Sudoeste 0 1021.7 -- 93
2021-01-29 12:00:00 14.5 3 Oeste 11 Sudoeste 0 1022.1 -- 93
2021-01-29 11:00:00 14.3 5 Sudoeste 10 Oeste 0 1021.6 -- 93
2021-01-29 10:00:00 14.4 4 Sudeste 10 Sudeste 0 1021 -- 93
2021-01-29 09:00:00 14.5 0 Calma 6 Sudeste 0 1020.9 -- 93
2021-01-29 08:00:00 14.3 0 Calma 7 Sudeste 0.1 1019.8 -- 94
2021-01-29 07:00:00 14.3 0 Calma 8 Sur 0.1 1019.9 -- 94
2021-01-29 06:00:00 14 2 Sur 9 Sur 0 1019.5 -- 93
2021-01-29 05:00:00 13.8 3 Oeste 10 Oeste 0.1 1019.9 -- 93
2021-01-29 04:00:00 13.6 6 Oeste 14 Noroeste 0 1020.1 -- 94
2021-01-29 03:00:00 13.1 10 Noroeste 16 Noroeste 0 1020.4 -- 94
2021-01-29 02:00:00 12.7 7 Oeste 10 Oeste 0.1 1020.1 -- 94
2021-01-29 01:00:00 12.5 0 Calma 8 Norte 0 1020.5 -- 94
2021-01-29 00:00:00 13 0 Calma 6 Noroeste 0.1 1020 -- 94
2021-01-28 23:00:00 12.8 0 Calma 6 Noroeste 0 1019.8 -- 94
2021-01-28 22:00:00 13.4 4 Norte 10 Noroeste 0 1020.1 -- 93
2021-01-28 21:00:00 13.4 4 Norte 10 Noroeste 0 1020 -- 93
2021-01-28 20:00:00 13.6 4 Noroeste 10 Noroeste 0 1019.9 -- 93
2021-01-28 19:00:00 13.9 4 Sudoeste 12 Oeste 0 1019.4 -- 93
2021-01-28 18:00:00 14.2 9 Oeste 14 Oeste 0 1019.6 -- 93
2021-01-28 17:00:00 14.3 7 Oeste 12 Oeste 0 1019.8 -- 93
2021-01-28 16:00:00 14.6 5 Noroeste 11 Oeste 0 1019.8 -- 93
2021-01-28 15:00:00 14.6 5 Oeste 12 Noroeste 0 1020 -- 93
2021-01-28 14:00:00 14.7 7 Noroeste 11 Noroeste 0 1020.6 -- 93
2021-01-28 13:00:00 15.3 4 Oeste 9 Oeste 0 1021.4 -- 93
2021-01-28 12:00:00 14.8 2 Sur 11 Sur 0 1021.7 -- 93
2021-01-28 11:00:00 14.2 5 Este 13 Sudeste 0 1021.3 -- 93
2021-01-28 10:00:00 13.8 6 Este 13 Sudeste 0 1020.9 -- 93
2021-01-28 09:00:00 13.7 4 Este 10 Este 0 1020.6 -- 93
2021-01-28 08:00:00 13.5 5 Este 10 Este 0.1 1020.4 -- 93
2021-01-28 07:00:00 13 4 Este 8 Este 0 1020.2 -- 93
2021-01-28 06:00:00 12.1 3 Este 14 Sudeste 0 1020.1 -- 91
2021-01-28 05:00:00 12.9 5 Este 9 Este 0 1020.4 -- 90
2021-01-28 04:00:00 13.7 4 Este 14 Nordeste 0 1020.6 -- 86
2021-01-28 03:00:00 14.2 6 Nordeste 13 Nordeste 0 1020.5 -- 86
2021-01-28 02:00:00 14.9 0 Calma 15 Este 0 1020.9 -- 83
2021-01-28 01:00:00 15.6 8 Nordeste 18 Nordeste 0 1021 -- 82
2021-01-28 00:00:00 15.1 3 Norte 13 Norte 0 1021.5 -- 88
2021-01-27 23:00:00 15.6 6 Norte 12 Norte 0 1022 -- 88
2021-01-27 22:00:00 15.7 4 Norte 12 Norte 0 1022.1 -- 88
2021-01-27 21:00:00 16.1 7 Norte 13 Norte 0 1022.4 -- 87
2021-01-27 20:00:00 16.6 6 Noroeste 23 Noroeste 0 1022.4 -- 86
2021-01-27 19:00:00 17 9 Noroeste 15 Noroeste 0 1021.9 -- 83
2021-01-27 18:00:00 19.5 7 Norte 18 Norte 0 1021.1 -- 73
2021-01-27 17:00:00 19.5 6 Norte 18 Norte 0 1021.2 -- 75
2021-01-27 16:00:00 18.8 6 Norte 16 Norte 0 1021.6 -- 80
2021-01-27 15:00:00 17.4 7 Noroeste 14 Norte 0 1021.9 -- 93
2021-01-27 14:00:00 16.3 5 Norte 16 Norte 0 1022.8 -- 94
2021-01-27 13:00:00 15.5 5 Norte 16 Nordeste 0 1023.6 -- 94
2021-01-27 12:00:00 15.3 5 Norte 14 Norte 0 1024.2 -- 94
2021-01-27 11:00:00 15.2 3 Norte 11 Nordeste 0 1023.7 -- 94
2021-01-27 10:00:00 14.9 6 Norte 15 Norte 0 1023.2 -- 94
2021-01-27 09:00:00 15 5 Norte 14 Norte 0 1022.8 -- 94
2021-01-27 08:00:00 15 6 Norte 15 Norte 0 1022.6 -- 94
2021-01-27 07:00:00 15.1 4 Noroeste 8 Norte 0 1022.3 -- 94
2021-01-27 06:00:00 15.3 3 Noroeste 9 Norte 0 1022.2 -- 94
2021-01-27 05:00:00 15.5 4 Norte 10 Norte 0 1022.6 -- 94
2021-01-27 04:00:00 15.5 5 Noroeste 11 Noroeste 0.1 1023.1 -- 94
2021-01-27 03:00:00 15.4 4 Noroeste 7 Oeste 0 1023.4 -- 94
2021-01-27 02:00:00 15.5 5 Oeste 8 Oeste 0 1023.5 -- 94
2021-01-27 01:00:00 15.6 4 Oeste 16 Oeste 0 1024 -- 93
2021-01-27 00:00:00 15.9 8 Oeste 13 Oeste 0 1024.2 -- 93
2021-01-26 23:00:00 16 6 Oeste 12 Oeste 0 1024.2 -- 93
2021-01-26 22:00:00 16.1 6 Sudoeste 11 Sudoeste 0 1023.9 -- 93
2021-01-26 21:00:00 16.1 2 Sudoeste 8 Oeste 0 1023.9 -- 93
2021-01-26 20:00:00 16.4 4 Oeste 10 Oeste 0 1023.9 -- 93
2021-01-26 19:00:00 16.5 5 Oeste 10 Oeste 0 1023.5 -- 93
2021-01-26 18:00:00 16.6 6 Oeste 12 Oeste 0 1023 -- 93
2021-01-26 17:00:00 16.5 9 Oeste 21 Oeste 0 1022.5 -- 93
2021-01-26 16:00:00 16.6 12 Oeste 21 Oeste 0 1022.4 -- 93
2021-01-26 15:00:00 17.1 13 Oeste 24 Oeste 0 1022.4 -- 93
2021-01-26 14:00:00 16.7 11 Oeste 22 Sudoeste 0 1022.8 -- 93
2021-01-26 13:00:00 16.3 11 Sudoeste 24 Sudoeste 0 1023.5 -- 94
2021-01-26 12:00:00 15.9 13 Sudoeste 23 Sudoeste 0.2 1024.1 -- 94
2021-01-26 11:00:00 15.8 11 Sudoeste 19 Sudoeste 0 1023.8 -- 94
2021-01-26 10:00:00 15.6 8 Sudoeste 20 Oeste 0 1023 -- 93
2021-01-26 09:00:00 15.6 8 Sudoeste 16 Sudoeste 0 1022.6 -- 91
2021-01-26 08:00:00 15.6 5 Oeste 10 Sudoeste 0 1022.3 -- 91
2021-01-26 07:00:00 15.4 5 Oeste 13 Oeste 0 1021.6 -- 91
2021-01-26 06:00:00 15.3 8 Oeste 22 Oeste 0 1021.5 -- 91
2021-01-26 05:00:00 15.2 13 Oeste 21 Oeste 0 1021.1 -- 93
2021-01-26 04:00:00 15.2 14 Oeste 22 Oeste 0 1021.1 -- 93
2021-01-26 03:00:00 15.3 8 Oeste 15 Oeste 0 1021.2 -- 93
2021-01-26 02:00:00 15.3 10 Oeste 16 Oeste 0 1021 -- 92
2021-01-26 01:00:00 15.4 6 Sudoeste 19 Oeste 0 1020.8 -- 91
2021-01-26 00:00:00 15.7 12 Oeste 22 Oeste 0 1020.6 -- 90
2021-01-25 23:00:00 15.7 12 Oeste 23 Oeste 0 1020.3 -- 90
2021-01-25 22:00:00 15.8 13 Oeste 22 Oeste 0 1019.7 -- 90
2021-01-25 21:00:00 15.5 14 Oeste 26 Oeste 0 1019.1 -- 90
2021-01-25 20:00:00 15.9 17 Oeste 30 Oeste 0 1018.3 -- 88
2021-01-25 19:00:00 15.9 19 Oeste 28 Oeste 0 1017.7 -- 86
2021-01-25 18:00:00 16.4 21 Oeste 32 Oeste 0 1017.1 -- 85
2021-01-25 17:00:00 16.5 22 Oeste 41 Oeste 0 1017.1 -- 88
2021-01-25 16:00:00 16 24 Oeste 40 Oeste 0.4 1016.6 -- 91
2021-01-25 15:00:00 16.9 17 Sudoeste 34 Oeste 0 1016.6 -- 88
2021-01-25 14:00:00 17 16 Oeste 33 Sudoeste 0 1017.1 -- 87
2021-01-25 13:00:00 16.9 15 Sudoeste 31 Sudoeste 0 1017.4 -- 87
2021-01-25 12:00:00 16.6 16 Oeste 31 Sudoeste 0 1017.9 -- 88
2021-01-25 11:00:00 16.3 14 Oeste 28 Sudoeste 0 1017.5 -- 90
2021-01-25 10:00:00 15.8 13 Sudoeste 24 Sudoeste 0 1016.9 -- 91
2021-01-25 09:00:00 15.4 12 Sudoeste 27 Oeste 0 1016.7 -- 91
2021-01-25 08:00:00 15.2 17 Oeste 24 Oeste 0 1016.5 -- 93
2021-01-25 07:00:00 15.3 10 Oeste 25 Oeste 0 1015.9 -- 93
2021-01-25 06:00:00 15.4 12 Oeste 23 Sudoeste 0 1016 -- 92
2021-01-25 05:00:00 15.2 9 Oeste 17 Oeste 0 1016.4 -- 91
2021-01-25 04:00:00 14.8 13 Oeste 18 Oeste 0 1016.3 -- 91
2021-01-25 03:00:00 15 6 Sudoeste 13 Sudoeste 0 1016.5 -- 91
2021-01-25 02:00:00 14.1 6 Sudoeste 11 Sudoeste 0 1016.7 -- 91
2021-01-25 01:00:00 13.5 4 Sur 7 Sudeste 0 1016.9 -- 91
2021-01-25 00:00:00 14 4 Sur 10 Sudoeste 0 1017.1 -- 88